This is the latest recevied weather packets stored in our database for station/object LA1HSA-13. If no packets are shown the sender has not sent any weather packets the latest 1 day(s).
| Time | Temp. | Humidity | Pressure | Rain* | Wind** | Luminosity | Snow |
|---|---|---|---|---|---|---|---|
| 1836274377 | 12.22° C | 99% | 1007.4 hPa | 0.25 mm | 0.89 m/s, 286° | - | - |
| 1836274227 | 12.22° C | 99% | 1007.2 hPa | 0.25 mm | 0 m/s | - | - |
| 1778048403 | 5° C | 60% | 1013.1 hPa | 0 mm | 0 m/s | - | - |
| 1778047803 | 3.33° C | 62% | 1013.1 hPa | 0 mm | 0.45 m/s, 225° | - | - |
| 1778047203 | 2.78° C | 64% | 1013 hPa | 0 mm | 0 m/s | - | - |
| 1778046603 | 2.78° C | 64% | 1013.1 hPa | 0 mm | 0 m/s | - | - |
| 1778046003 | 1.67° C | 66% | 1012.9 hPa | 0 mm | 0.45 m/s, 225° | - | - |
| 1778045403 | 1.67° C | 67% | 1012.7 hPa | 0 mm | 0 m/s | - | - |
| 1778044803 | 0.56° C | 70% | 1012.8 hPa | 0 mm | 0 m/s | - | - |
| 1778044204 | 0° C | 71% | 1012.8 hPa | 0 mm | 0 m/s | - | - |
| 1778043603 | 0° C | 70% | 1012.7 hPa | 0 mm | 0 m/s | - | - |
| 1778043003 | 0° C | 71% | 1012.6 hPa | 0 mm | 0 m/s | - | - |
| 1778042403 | -0.56° C | 72% | 1012.8 hPa | 0 mm | 0 m/s | - | - |
| 1778041803 | -0.56° C | 73% | 1012.9 hPa | 0 mm | 0 m/s | - | - |
| 1778041203 | -1.11° C | 75% | 1012.8 hPa | 0 mm | 0.45 m/s, 94° | - | - |
| 1778040603 | -1.67° C | 77% | 1013 hPa | 0 mm | 0 m/s | - | - |
| 1778040003 | -2.78° C | 81% | 1012.6 hPa | 0 mm | 0 m/s | - | - |
| 1778039403 | -3.33° C | 81% | 1012.6 hPa | 0 mm | 0 m/s | - | - |
| 1778038803 | -3.33° C | 83% | 1012.5 hPa | 0 mm | 0 m/s | - | - |
| 1778038203 | -3.33° C | 83% | 1012.4 hPa | 0 mm | 0 m/s | - | - |
| 1778037603 | -3.33° C | 82% | 1012.5 hPa | 0 mm | 0 m/s | - | - |
| 1778037003 | -3.33° C | 82% | 1012.6 hPa | 0 mm | 0 m/s | - | - |
| 1778036403 | -2.78° C | 80% | 1012.4 hPa | 0 mm | 0 m/s | - | - |
| 1778035803 | -2.78° C | 79% | 1012.4 hPa | 0 mm | 0 m/s | - | - |
| 1778035203 | -2.78° C | 80% | 1012.5 hPa | 0 mm | 0 m/s | - | - |
* Rain latest hour (hover to see other rain measurements)
** Current wind speed in m/s (hover to see current wind gust speed)